UAL912 KDCA-KRDU
Flight info
| Callsign | UAL912 |
|---|---|
| Flight time | 0h 46m |
| Altitude | 34000 |
| Route | JDUBB4 MELTN ALDAN4 |
| Aircraft | A320/M-SDE3FGHIRWY/LB1 |
Departure
| Time | 2026-04-20 15:59 |
|---|---|
| Airport | Ronald Reagan Washington National Airport (KDCA) |
Arrival
| Time | 2026-04-20 16:45 |
|---|---|
| Airport | Raleigh-Durham International Airport (KRDU) |
| Time | Latitude | Longitude | Altitude | Speed | Heading |
|---|---|---|---|---|---|
| 2026-04-20 15:44 | 38.85423 | -77.04072 | 23 ft | 0 kts | 266° |
| 2026-04-20 15:51 | 38.85424 | -77.04063 | 22 ft | 2 kts | 266° |
| 2026-04-20 15:51 | 38.85425 | -77.04042 | 22 ft | 3 kts | 260° |
| 2026-04-20 15:52 | 38.85431 | -77.04021 | 22 ft | 2 kts | 224° |
| 2026-04-20 15:52 | 38.85436 | -77.04014 | 22 ft | 0 kts | 212° |
| 2026-04-20 15:54 | 38.85428 | -77.04013 | 22 ft | 4 kts | 178° |
| 2026-04-20 15:54 | 38.85366 | -77.03993 | 21 ft | 15 kts | 159° |
| 2026-04-20 15:54 | 38.85231 | -77.03935 | 19 ft | 25 kts | 164° |
| 2026-04-20 15:54 | 38.85050 | -77.03908 | 19 ft | 27 kts | 176° |
| 2026-04-20 15:55 | 38.84855 | -77.03892 | 18 ft | 28 kts | 176° |
| 2026-04-20 15:55 | 38.84709 | -77.03873 | 22 ft | 21 kts | 174° |
| 2026-04-20 15:55 | 38.84563 | -77.03858 | 20 ft | 22 kts | 176° |
| 2026-04-20 15:55 | 38.84431 | -77.03848 | 22 ft | 15 kts | 176° |
| 2026-04-20 15:56 | 38.84335 | -77.03838 | 24 ft | 5 kts | 174° |
| 2026-04-20 15:56 | 38.84325 | -77.03836 | 24 ft | 0 kts | 174° |
| 2026-04-20 15:56 | 38.84305 | -77.03834 | 24 ft | 7 kts | 174° |
| 2026-04-20 15:56 | 38.84272 | -77.03829 | 23 ft | 0 kts | 171° |
| 2026-04-20 15:57 | 38.84255 | -77.03824 | 22 ft | 7 kts | 162° |
| 2026-04-20 15:57 | 38.84221 | -77.03783 | 21 ft | 0 kts | 129° |
| 2026-04-20 15:57 | 38.84216 | -77.03776 | 23 ft | 4 kts | 128° |
| 2026-04-20 15:57 | 38.84196 | -77.03705 | 20 ft | 12 kts | 78° |
| 2026-04-20 15:58 | 38.84233 | -77.03685 | 20 ft | 4 kts | 358° |
| 2026-04-20 15:58 | 38.84509 | -77.03717 | 21 ft | 76 kts | 356° |
| 2026-04-20 15:58 | 38.85237 | -77.03787 | 26 ft | 131 kts | 356° |
| 2026-04-20 15:58 | 38.86201 | -77.03883 | 428 ft | 150 kts | 352° |
| 2026-04-20 15:59 | 38.87250 | -77.04205 | 1073 ft | 158 kts | 331° |
| 2026-04-20 15:59 | 38.88147 | -77.05017 | 1815 ft | 158 kts | 320° |
| 2026-04-20 15:59 | 38.89039 | -77.05967 | 2265 ft | 179 kts | 319° |
| 2026-04-20 15:59 | 38.90003 | -77.07088 | 2739 ft | 199 kts | 308° |
| 2026-04-20 16:00 | 38.90746 | -77.08716 | 3263 ft | 223 kts | 299° |
| 2026-04-20 16:00 | 38.91570 | -77.10488 | 3999 ft | 237 kts | 311° |
| 2026-04-20 16:00 | 38.92883 | -77.11782 | 5001 ft | 240 kts | 327° |
| 2026-04-20 16:00 | 38.94318 | -77.12897 | 5999 ft | 244 kts | 327° |
| 2026-04-20 16:01 | 38.95702 | -77.14177 | 6948 ft | 246 kts | 313° |
| 2026-04-20 16:01 | 38.96707 | -77.15959 | 7838 ft | 249 kts | 294° |
| 2026-04-20 16:01 | 38.97214 | -77.18093 | 8765 ft | 253 kts | 280° |
| 2026-04-20 16:01 | 38.97545 | -77.20330 | 9701 ft | 256 kts | 280° |
| 2026-04-20 16:02 | 38.97870 | -77.22589 | 10590 ft | 260 kts | 277° |
| 2026-04-20 16:02 | 38.97812 | -77.24964 | 10933 ft | 282 kts | 257° |
| 2026-04-20 16:02 | 38.96972 | -77.27298 | 11517 ft | 297 kts | 237° |
| 2026-04-20 16:02 | 38.95414 | -77.29119 | 12286 ft | 312 kts | 216° |
| 2026-04-20 16:03 | 38.93396 | -77.30263 | 13085 ft | 320 kts | 207° |
| 2026-04-20 16:03 | 38.91306 | -77.31310 | 13864 ft | 325 kts | 208° |
| 2026-04-20 16:03 | 38.89181 | -77.32357 | 14573 ft | 329 kts | 208° |
| 2026-04-20 16:03 | 38.87061 | -77.33396 | 15289 ft | 332 kts | 208° |
| 2026-04-20 16:04 | 38.84896 | -77.34455 | 16028 ft | 334 kts | 209° |
| 2026-04-20 16:04 | 38.82720 | -77.35521 | 16766 ft | 336 kts | 210° |
| 2026-04-20 16:04 | 38.80533 | -77.36592 | 17522 ft | 338 kts | 210° |
| 2026-04-20 16:04 | 38.78333 | -77.37675 | 18256 ft | 340 kts | 211° |
| 2026-04-20 16:05 | 38.76119 | -77.38768 | 18955 ft | 342 kts | 211° |
| 2026-04-20 16:05 | 38.73892 | -77.39866 | 19623 ft | 343 kts | 211° |
| 2026-04-20 16:05 | 38.71657 | -77.40968 | 20296 ft | 345 kts | 212° |
| 2026-04-20 16:05 | 38.69408 | -77.42079 | 20971 ft | 347 kts | 212° |
| 2026-04-20 16:06 | 38.67148 | -77.43197 | 21609 ft | 349 kts | 212° |
| 2026-04-20 16:06 | 38.64909 | -77.44304 | 22236 ft | 351 kts | 212° |
| 2026-04-20 16:06 | 38.62619 | -77.45434 | 22858 ft | 354 kts | 212° |
| 2026-04-20 16:06 | 38.60315 | -77.46569 | 23479 ft | 356 kts | 212° |
| 2026-04-20 16:07 | 38.57997 | -77.47710 | 24052 ft | 358 kts | 212° |
| 2026-04-20 16:07 | 38.55662 | -77.48856 | 24572 ft | 360 kts | 212° |
| 2026-04-20 16:07 | 38.53319 | -77.50003 | 25074 ft | 361 kts | 212° |
| 2026-04-20 16:07 | 38.50965 | -77.51156 | 25589 ft | 363 kts | 212° |
| 2026-04-20 16:08 | 38.48600 | -77.52312 | 26096 ft | 364 kts | 212° |
| 2026-04-20 16:08 | 38.46263 | -77.53454 | 26589 ft | 366 kts | 212° |
| 2026-04-20 16:08 | 38.43881 | -77.54618 | 27094 ft | 367 kts | 212° |
| 2026-04-20 16:08 | 38.41495 | -77.55783 | 27579 ft | 368 kts | 212° |
| 2026-04-20 16:09 | 38.39202 | -77.57158 | 28028 ft | 360 kts | 219° |
| 2026-04-20 16:09 | 38.37107 | -77.58871 | 28487 ft | 357 kts | 223° |
| 2026-04-20 16:09 | 38.35046 | -77.60642 | 28945 ft | 359 kts | 223° |
| 2026-04-20 16:09 | 38.32976 | -77.62422 | 29379 ft | 360 kts | 223° |
| 2026-04-20 16:10 | 38.30919 | -77.64188 | 29800 ft | 362 kts | 223° |
| 2026-04-20 16:10 | 38.28824 | -77.65982 | 30249 ft | 363 kts | 223° |
| 2026-04-20 16:10 | 38.26725 | -77.67787 | 30614 ft | 366 kts | 223° |
| 2026-04-20 16:10 | 38.24611 | -77.69616 | 30899 ft | 370 kts | 223° |
| 2026-04-20 16:11 | 38.22469 | -77.71468 | 31176 ft | 375 kts | 223° |
| 2026-04-20 16:11 | 38.20298 | -77.73342 | 31435 ft | 379 kts | 223° |
| 2026-04-20 16:11 | 38.18106 | -77.75234 | 31704 ft | 384 kts | 223° |
| 2026-04-20 16:11 | 38.15885 | -77.77148 | 31962 ft | 388 kts | 223° |
| 2026-04-20 16:12 | 38.13631 | -77.79080 | 32221 ft | 392 kts | 222° |
| 2026-04-20 16:12 | 38.11390 | -77.80996 | 32572 ft | 394 kts | 222° |
| 2026-04-20 16:12 | 38.09113 | -77.82940 | 32923 ft | 396 kts | 222° |
| 2026-04-20 16:12 | 38.06823 | -77.84899 | 33268 ft | 398 kts | 222° |
| 2026-04-20 16:13 | 38.04517 | -77.86873 | 33607 ft | 400 kts | 222° |
| 2026-04-20 16:13 | 38.02204 | -77.88847 | 33985 ft | 402 kts | 222° |
| 2026-04-20 16:13 | 37.99869 | -77.90838 | 34226 ft | 405 kts | 222° |
| 2026-04-20 16:13 | 37.97584 | -77.92777 | 34263 ft | 394 kts | 222° |
| 2026-04-20 16:14 | 37.93107 | -77.96561 | 34265 ft | 383 kts | 223° |
| 2026-04-20 16:14 | 37.88706 | -78.00313 | 34263 ft | 381 kts | 223° |
| 2026-04-20 16:15 | 37.84322 | -78.04057 | 34262 ft | 380 kts | 223° |
| 2026-04-20 16:15 | 37.79964 | -78.07760 | 34262 ft | 379 kts | 223° |
| 2026-04-20 16:16 | 37.75581 | -78.11464 | 34243 ft | 379 kts | 223° |
| 2026-04-20 16:16 | 37.71193 | -78.15178 | 34246 ft | 379 kts | 223° |
| 2026-04-20 16:17 | 37.66838 | -78.18854 | 34254 ft | 379 kts | 222° |
| 2026-04-20 16:17 | 37.62458 | -78.22547 | 34255 ft | 379 kts | 222° |
| 2026-04-20 16:18 | 37.58085 | -78.26240 | 34239 ft | 378 kts | 222° |
| 2026-04-20 16:18 | 37.53714 | -78.29920 | 34252 ft | 378 kts | 222° |
| 2026-04-20 16:19 | 37.49350 | -78.33585 | 34005 ft | 374 kts | 222° |
| 2026-04-20 16:19 | 37.47246 | -78.35341 | 33909 ft | 361 kts | 222° |
| 2026-04-20 16:19 | 37.45179 | -78.37056 | 33804 ft | 350 kts | 222° |
| 2026-04-20 16:20 | 37.43168 | -78.38732 | 33467 ft | 345 kts | 223° |
| 2026-04-20 16:20 | 37.41184 | -78.40395 | 33079 ft | 342 kts | 223° |
| 2026-04-20 16:20 | 37.39215 | -78.42049 | 32698 ft | 339 kts | 223° |
| 2026-04-20 16:20 | 37.37265 | -78.43689 | 32319 ft | 336 kts | 223° |
| 2026-04-20 16:21 | 37.35327 | -78.45314 | 31940 ft | 333 kts | 223° |
| 2026-04-20 16:21 | 37.33408 | -78.46919 | 31576 ft | 330 kts | 223° |
| 2026-04-20 16:21 | 37.31523 | -78.48493 | 31215 ft | 328 kts | 223° |
| 2026-04-20 16:21 | 37.29630 | -78.50075 | 30859 ft | 326 kts | 223° |
| 2026-04-20 16:22 | 37.27753 | -78.51641 | 30502 ft | 323 kts | 223° |
| 2026-04-20 16:22 | 37.25884 | -78.53194 | 30132 ft | 321 kts | 223° |
| 2026-04-20 16:22 | 37.24032 | -78.54730 | 29780 ft | 317 kts | 223° |
| 2026-04-20 16:22 | 37.22206 | -78.56247 | 29450 ft | 313 kts | 223° |
| 2026-04-20 16:23 | 37.20399 | -78.57750 | 29111 ft | 309 kts | 223° |
| 2026-04-20 16:23 | 37.18639 | -78.59218 | 28764 ft | 306 kts | 223° |
| 2026-04-20 16:23 | 37.16878 | -78.60687 | 28414 ft | 303 kts | 223° |
| 2026-04-20 16:23 | 37.15133 | -78.62139 | 28072 ft | 300 kts | 223° |
| 2026-04-20 16:24 | 37.13407 | -78.63571 | 27721 ft | 296 kts | 223° |
| 2026-04-20 16:24 | 37.11699 | -78.64987 | 27393 ft | 292 kts | 223° |
| 2026-04-20 16:24 | 37.10010 | -78.66387 | 27050 ft | 289 kts | 223° |
| 2026-04-20 16:24 | 37.08339 | -78.67771 | 26711 ft | 287 kts | 223° |
| 2026-04-20 16:25 | 37.06683 | -78.69145 | 26360 ft | 284 kts | 223° |
| 2026-04-20 16:25 | 37.05049 | -78.70502 | 26026 ft | 281 kts | 223° |
| 2026-04-20 16:25 | 37.03423 | -78.71851 | 25674 ft | 279 kts | 223° |
| 2026-04-20 16:25 | 37.01831 | -78.73171 | 25330 ft | 278 kts | 223° |
| 2026-04-20 16:26 | 37.00220 | -78.74502 | 24971 ft | 277 kts | 223° |
| 2026-04-20 16:26 | 36.98620 | -78.75828 | 24620 ft | 276 kts | 222° |
| 2026-04-20 16:26 | 36.97018 | -78.77154 | 24265 ft | 276 kts | 222° |
| 2026-04-20 16:26 | 36.95421 | -78.78476 | 23891 ft | 276 kts | 222° |
| 2026-04-20 16:27 | 36.93820 | -78.79799 | 23470 ft | 275 kts | 222° |
| 2026-04-20 16:27 | 36.92225 | -78.81112 | 23099 ft | 273 kts | 222° |
| 2026-04-20 16:27 | 36.90663 | -78.82395 | 22735 ft | 272 kts | 222° |
| 2026-04-20 16:27 | 36.89086 | -78.83692 | 22364 ft | 271 kts | 222° |
| 2026-04-20 16:28 | 36.87520 | -78.84983 | 21998 ft | 269 kts | 222° |
| 2026-04-20 16:28 | 36.85959 | -78.86272 | 21639 ft | 268 kts | 222° |
| 2026-04-20 16:28 | 36.84404 | -78.87553 | 21272 ft | 268 kts | 222° |
| 2026-04-20 16:28 | 36.82846 | -78.88834 | 20905 ft | 268 kts | 222° |
| 2026-04-20 16:29 | 36.81289 | -78.90113 | 20531 ft | 268 kts | 222° |
| 2026-04-20 16:29 | 36.79735 | -78.91388 | 20169 ft | 268 kts | 222° |
| 2026-04-20 16:29 | 36.78201 | -78.92648 | 19804 ft | 268 kts | 222° |
| 2026-04-20 16:29 | 36.76639 | -78.93932 | 19429 ft | 269 kts | 221° |
| 2026-04-20 16:30 | 36.75080 | -78.95212 | 19066 ft | 269 kts | 221° |
| 2026-04-20 16:30 | 36.73511 | -78.96498 | 18690 ft | 270 kts | 221° |
| 2026-04-20 16:30 | 36.71939 | -78.97788 | 18265 ft | 272 kts | 221° |
| 2026-04-20 16:30 | 36.70333 | -78.99111 | 17638 ft | 279 kts | 221° |
| 2026-04-20 16:31 | 36.68616 | -79.00289 | 17216 ft | 289 kts | 209° |
| 2026-04-20 16:31 | 36.66640 | -79.00837 | 16810 ft | 303 kts | 193° |
| 2026-04-20 16:31 | 36.64486 | -79.00602 | 16375 ft | 320 kts | 176° |
| 2026-04-20 16:31 | 36.62315 | -78.99962 | 15926 ft | 322 kts | 175° |
| 2026-04-20 16:32 | 36.60124 | -78.99316 | 15470 ft | 324 kts | 175° |
| 2026-04-20 16:32 | 36.57925 | -78.98670 | 15015 ft | 326 kts | 175° |
| 2026-04-20 16:32 | 36.55706 | -78.98022 | 14562 ft | 328 kts | 175° |
| 2026-04-20 16:32 | 36.53472 | -78.97375 | 14095 ft | 331 kts | 175° |
| 2026-04-20 16:33 | 36.51226 | -78.96726 | 13599 ft | 332 kts | 175° |
| 2026-04-20 16:33 | 36.49005 | -78.96081 | 13137 ft | 332 kts | 174° |
| 2026-04-20 16:33 | 36.46755 | -78.95427 | 12673 ft | 331 kts | 174° |
| 2026-04-20 16:33 | 36.44511 | -78.94775 | 12213 ft | 331 kts | 174° |
| 2026-04-20 16:34 | 36.42273 | -78.94121 | 11773 ft | 331 kts | 172° |
| 2026-04-20 16:34 | 36.40108 | -78.93091 | 11376 ft | 337 kts | 157° |
| 2026-04-20 16:34 | 36.38190 | -78.91378 | 10964 ft | 344 kts | 141° |
| 2026-04-20 16:34 | 36.36509 | -78.89256 | 10548 ft | 345 kts | 138° |
| 2026-04-20 16:35 | 36.34844 | -78.87123 | 10129 ft | 343 kts | 138° |
| 2026-04-20 16:35 | 36.33188 | -78.85007 | 9679 ft | 337 kts | 138° |
| 2026-04-20 16:35 | 36.31625 | -78.83009 | 9294 ft | 321 kts | 138° |
| 2026-04-20 16:35 | 36.30094 | -78.81054 | 8909 ft | 308 kts | 139° |
| 2026-04-20 16:36 | 36.28624 | -78.79193 | 8523 ft | 297 kts | 139° |
| 2026-04-20 16:36 | 36.27202 | -78.77404 | 8144 ft | 287 kts | 139° |
| 2026-04-20 16:36 | 36.25827 | -78.75664 | 7784 ft | 277 kts | 139° |
| 2026-04-20 16:36 | 36.24500 | -78.73981 | 7447 ft | 270 kts | 138° |
| 2026-04-20 16:37 | 36.23178 | -78.72310 | 7091 ft | 272 kts | 138° |
| 2026-04-20 16:37 | 36.21854 | -78.70637 | 6793 ft | 272 kts | 138° |
| 2026-04-20 16:37 | 36.20551 | -78.68992 | 6511 ft | 270 kts | 138° |
| 2026-04-20 16:37 | 36.19245 | -78.67341 | 6154 ft | 266 kts | 138° |
| 2026-04-20 16:38 | 36.17845 | -78.65873 | 5696 ft | 261 kts | 144° |
| 2026-04-20 16:38 | 36.16447 | -78.64481 | 5341 ft | 256 kts | 144° |
| 2026-04-20 16:38 | 36.15083 | -78.63118 | 4998 ft | 249 kts | 143° |
| 2026-04-20 16:38 | 36.13730 | -78.61767 | 4652 ft | 251 kts | 142° |
| 2026-04-20 16:39 | 36.12359 | -78.60418 | 4325 ft | 253 kts | 146° |
| 2026-04-20 16:39 | 36.10762 | -78.59518 | 4009 ft | 253 kts | 172° |
| 2026-04-20 16:39 | 36.09069 | -78.59434 | 3972 ft | 236 kts | 193° |
| 2026-04-20 16:39 | 36.07558 | -78.59856 | 3981 ft | 218 kts | 200° |
| 2026-04-20 16:40 | 36.06138 | -78.60278 | 4011 ft | 202 kts | 199° |
| 2026-04-20 16:40 | 36.04825 | -78.60664 | 3973 ft | 185 kts | 200° |
| 2026-04-20 16:40 | 36.03644 | -78.61013 | 3971 ft | 166 kts | 200° |
| 2026-04-20 16:40 | 36.02503 | -78.61361 | 3989 ft | 170 kts | 201° |
| 2026-04-20 16:41 | 36.01372 | -78.61783 | 3985 ft | 168 kts | 212° |
| 2026-04-20 16:41 | 36.00437 | -78.62572 | 3972 ft | 161 kts | 230° |
| 2026-04-20 16:41 | 35.99627 | -78.63490 | 3814 ft | 160 kts | 233° |
| 2026-04-20 16:41 | 35.98823 | -78.64453 | 3626 ft | 161 kts | 234° |
| 2026-04-20 16:42 | 35.98026 | -78.65429 | 3414 ft | 162 kts | 235° |
| 2026-04-20 16:42 | 35.97233 | -78.66406 | 3220 ft | 162 kts | 234° |
| 2026-04-20 16:42 | 35.96437 | -78.67391 | 2982 ft | 162 kts | 234° |
| 2026-04-20 16:42 | 35.95640 | -78.68377 | 2787 ft | 163 kts | 230° |
| 2026-04-20 16:43 | 35.94841 | -78.69367 | 2545 ft | 161 kts | 233° |
| 2026-04-20 16:43 | 35.94058 | -78.70339 | 2327 ft | 162 kts | 232° |
| 2026-04-20 16:43 | 35.93285 | -78.71296 | 2157 ft | 161 kts | 233° |
| 2026-04-20 16:43 | 35.92504 | -78.72262 | 1894 ft | 158 kts | 232° |
| 2026-04-20 16:44 | 35.91728 | -78.73222 | 1694 ft | 158 kts | 230° |
| 2026-04-20 16:44 | 35.90958 | -78.74174 | 1434 ft | 158 kts | 231° |
| 2026-04-20 16:44 | 35.90194 | -78.75120 | 1176 ft | 152 kts | 230° |
| 2026-04-20 16:44 | 35.89460 | -78.76027 | 950 ft | 149 kts | 230° |
| 2026-04-20 16:45 | 35.88750 | -78.76913 | 757 ft | 142 kts | 228° |
| 2026-04-20 16:45 | 35.88047 | -78.77774 | 522 ft | 141 kts | 228° |
| 2026-04-20 16:45 | 35.87433 | -78.78550 | 430 ft | 111 kts | 225° |
| 2026-04-20 16:45 | 35.87102 | -78.78956 | 411 ft | 26 kts | 226° |
| 2026-04-20 16:46 | 35.87015 | -78.79087 | 419 ft | 10 kts | 284° |
| 2026-04-20 16:46 | 35.87080 | -78.79097 | 417 ft | 11 kts | 31° |
| 2026-04-20 16:46 | 35.87156 | -78.79063 | 417 ft | 15 kts | 17° |
| 2026-04-20 16:46 | 35.87249 | -78.78962 | 421 ft | 21 kts | 47° |
| 2026-04-20 16:47 | 35.87362 | -78.78889 | 422 ft | 15 kts | 343° |
| 2026-04-20 16:47 | 35.87429 | -78.78912 | 421 ft | 0 kts | 345° |